Time;durP1;ratioP1;P1;durP2;ratioP2;P2;SDS_P1;SDS_P2;PMS_P1;PMS_P2;Temp;Humidity;BMP_temperature;BMP_pressure;BME280_temperature;BME280_humidity;BME280_pressure;Samples;Min_cycle;Max_cycle;Signal;HPM_P1;HPM_P2
2022/12/04 00:01:21;;;;;;;;;12.50;8.75;;;;;19.66;31.41;100774.56;5037975;28;46808;-44
2022/12/04 00:03:50;;;;;;;;;8.00;8.00;;;;;19.65;31.30;100770.22;5038076;28;45379;-40
2022/12/04 00:06:18;;;;;;;;;10.00;8.25;;;;;19.63;31.62;100770.28;5038217;28;45385;-42
2022/12/04 00:08:44;;;;;;;;;8.75;7.50;;;;;19.63;31.74;100775.53;5037853;28;45606;-45
2022/12/04 00:11:11;;;;;;;;;11.50;8.50;;;;;19.61;31.36;100764.28;5037856;28;48347;-44
2022/12/04 00:13:38;;;;;;;;;9.00;8.00;;;;;19.60;31.51;100764.34;5037901;28;45334;-43
2022/12/04 00:16:09;;;;;;;;;10.25;9.00;;;;;19.60;31.63;100766.97;5036902;28;45405;-42
2022/12/04 00:18:35;;;;;;;;;10.75;9.50;;;;;19.59;31.10;100762.63;5038070;28;45333;-44
2022/12/04 00:21:06;;;;;;;;;10.00;9.00;;;;;19.56;31.42;100760.19;5037589;28;45379;-44
2022/12/04 00:23:32;;;;;;;;;9.25;8.25;;;;;19.52;31.55;100761.28;5037837;28;45935;-43
2022/12/04 00:26:06;;;;;;;;;6.75;6.75;;;;;19.53;31.27;100765.59;5037863;28;45455;-43
2022/12/04 00:28:32;;;;;;;;;7.25;7.25;;;;;19.51;31.60;100764.84;5037834;28;45525;-42
2022/12/04 00:30:58;;;;;;;;;9.75;8.50;;;;;19.49;31.36;100764.06;5037631;28;45290;-46
2022/12/04 00:33:23;;;;;;;;;10.75;6.25;;;;;19.46;31.62;100760.66;5037795;28;45321;-46
2022/12/04 00:35:57;;;;;;;;;10.25;9.50;;;;;19.45;31.86;100764.25;5036344;28;45359;-51
2022/12/04 00:38:22;;;;;;;;;6.75;6.50;;;;;19.44;31.11;100765.16;5037876;28;45490;-47
2022/12/04 00:40:51;;;;;;;;;11.00;9.00;;;;;19.41;31.27;100754.81;5037406;28;48064;-45
2022/12/04 00:43:17;;;;;;;;;8.25;8.00;;;;;19.40;31.33;100747.00;5037475;28;45382;-43
2022/12/04 00:45:42;;;;;;;;;10.00;7.25;;;;;19.38;31.40;100752.31;5037452;28;45397;-46
2022/12/04 00:48:08;;;;;;;;;8.75;8.00;;;;;19.38;31.75;100754.94;5037632;28;45627;-43
2022/12/04 00:50:34;;;;;;;;;10.50;9.00;;;;;19.37;31.67;100745.38;5037179;28;45373;-45
2022/12/04 00:52:59;;;;;;;;;10.00;9.00;;;;;19.37;31.98;100750.63;5037285;28;45455;-42
2022/12/04 00:55:24;;;;;;;;;7.50;5.00;;;;;19.40;32.18;100754.88;5037608;28;45204;-43
2022/12/04 00:57:50;;;;;;;;;8.00;7.00;;;;;19.44;31.97;100759.91;5037508;28;45218;-44
2022/12/04 01:00:15;;;;;;;;;8.33;8.00;;;;;19.47;31.91;100766.78;5036882;28;50216;-44
2022/12/04 01:02:41;;;;;;;;;7.25;7.25;;;;;19.52;31.96;100764.75;5037111;28;45366;-44
2022/12/04 01:05:06;;;;;;;;;7.50;7.50;;;;;19.56;32.27;100754.94;5037200;28;45401;-41
2022/12/04 01:07:32;;;;;;;;;12.50;8.25;;;;;19.58;32.32;100763.56;5037139;28;45470;-42
2022/12/04 01:09:57;;;;;;;;;11.25;7.50;;;;;19.63;31.86;100758.94;5037195;28;45971;-44
2022/12/04 01:12:22;;;;;;;;;9.00;8.75;;;;;19.66;31.70;100750.88;5037028;28;45397;-43
2022/12/04 01:14:48;;;;;;;;;9.00;7.33;;;;;19.70;31.93;100749.78;5036812;28;46097;-44
2022/12/04 01:17:13;;;;;;;;;10.50;7.50;;;;;19.73;32.12;100751.41;5037054;28;45381;-43
2022/12/04 01:19:38;;;;;;;;;10.25;8.75;;;;;19.74;31.97;100747.84;5036801;28;45446;-42
2022/12/04 01:22:04;;;;;;;;;7.00;4.50;;;;;19.77;31.99;100745.91;5036225;28;45423;-44
2022/12/04 01:24:29;;;;;;;;;7.50;7.25;;;;;19.77;31.56;100743.28;5037261;28;45335;-41
2022/12/04 01:26:54;;;;;;;;;9.67;7.67;;;;;19.83;31.84;100752.63;5036452;28;47150;-41
2022/12/04 01:29:20;;;;;;;;;9.75;8.00;;;;;19.84;31.62;100749.06;5036519;28;46519;-43
2022/12/04 01:31:45;;;;;;;;;6.75;3.25;;;;;19.87;31.53;100742.81;5036727;28;45276;-43
2022/12/04 01:34:10;;;;;;;;;3.25;2.75;;;;;19.88;31.71;100744.50;5036683;28;45307;-45
2022/12/04 01:36:36;;;;;;;;;10.00;8.00;;;;;19.89;32.07;100735.69;5037226;28;45637;-43
2022/12/04 01:39:01;;;;;;;;;7.33;6.33;;;;;19.93;32.03;100747.72;5036495;28;52243;-43
2022/12/04 01:41:29;;;;;;;;;13.00;9.50;;;;;19.95;31.80;100745.03;5036999;28;45326;-44
2022/12/04 01:44:15;;;;;;;;;9.75;7.00;;;;;19.99;31.82;100751.81;5036691;28;45306;-41
2022/12/04 01:46:50;;;;;;;;;10.00;8.50;;;;;19.98;32.04;100740.44;5035400;28;45310;-40
2022/12/04 01:49:41;;;;;;;;;10.00;7.25;;;;;19.99;31.55;100752.66;5036500;28;46816;-43
2022/12/04 01:52:14;;;;;;;;;7.50;6.50;;;;;20.03;31.69;100756.81;5033814;28;45761;-44
2022/12/04 01:54:44;;;;;;;;;9.00;9.00;;;;;20.03;31.87;100751.56;5036499;28;45374;-45
2022/12/04 01:57:22;;;;;;;;;9.00;8.50;;;;;20.04;31.73;100749.78;5036452;28;45524;-46
2022/12/04 01:59:58;;;;;;;;;10.00;8.00;;;;;20.07;31.41;100754.84;5036113;28;47549;-43
2022/12/04 02:02:31;;;;;;;;;8.00;8.00;;;;;20.08;31.24;100756.56;5036307;28;45441;-43
2022/12/04 02:04:59;;;;;;;;;9.00;9.00;;;;;20.08;31.33;100757.44;5036270;28;45378;-42
2022/12/04 02:07:25;;;;;;;;;9.50;8.00;;;;;20.08;31.46;100752.16;5036124;28;45573;-43
2022/12/04 02:09:54;;;;;;;;;9.50;8.00;;;;;20.08;31.57;100746.91;5035863;28;45711;-44
2022/12/04 02:12:54;;;;;;;;;9.75;8.00;;;;;20.10;31.43;100745.97;5034688;28;45701;-41
2022/12/04 02:15:42;;;;;;;;;11.75;9.00;;;;;20.12;31.15;100752.00;5034672;28;45398;-43
2022/12/04 02:18:19;;;;;;;;;11.00;8.75;;;;;20.10;31.29;100753.88;5036270;28;45251;-43
2022/12/04 02:21:13;;;;;;;;;10.75;9.00;;;;;20.10;30.98;100751.25;5035838;28;46172;-43
2022/12/04 02:24:17;;;;;;;;;9.75;7.25;;;;;20.08;31.33;100756.56;5026151;28;45410;-43
2022/12/04 02:27:00;;;;;;;;;8.75;7.00;;;;;20.10;31.26;100753.88;5034804;28;45298;-44
2022/12/04 02:29:35;;;;;;;;;8.50;8.50;;;;;20.10;31.25;100759.13;5051749;28;45575;-41
2022/12/04 02:32:18;;;;;;;;;10.25;9.50;;;;;20.10;30.88;100751.25;5036313;28;45513;-43
2022/12/04 02:35:00;;;;;;;;;7.75;5.75;;;;;20.05;31.34;100747.06;5035645;28;45806;-44
2022/12/04 02:37:32;;;;;;;;;10.25;7.50;;;;;20.08;30.90;100746.91;5036049;28;45342;-45
2022/12/04 02:40:09;;;;;;;;;8.50;8.50;;;;;20.07;31.28;100744.34;5037521;28;45426;-44
2022/12/04 02:42:47;;;;;;;;;10.00;8.50;;;;;20.06;31.40;100742.66;5039565;28;46508;-44
2022/12/04 02:45:30;;;;;;;;;9.25;7.75;;;;;20.06;31.39;100747.94;5039279;28;45368;-43
2022/12/04 02:47:59;;;;;;;;;9.00;7.25;;;;;20.05;31.15;100747.06;5039455;28;45231;-45
2022/12/04 02:50:27;;;;;;;;;10.00;8.00;;;;;20.04;31.26;100744.53;5039430;28;45471;-46
2022/12/04 02:53:18;;;;;;;;;10.75;8.50;;;;;20.04;31.25;100753.25;5039151;28;45280;-44
2022/12/04 02:55:50;;;;;;;;;9.00;8.00;;;;;20.03;31.23;100754.19;5033523;28;45881;-43
2022/12/04 02:58:30;;;;;;;;;13.25;8.25;;;;;20.00;31.42;100751.75;5039282;28;45251;-42
2022/12/04 03:00:59;;;;;;;;;9.25;9.00;;;;;20.00;31.00;100757.00;5039380;28;45412;-41
2022/12/04 03:03:28;;;;;;;;;10.00;10.00;;;;;19.98;31.25;100753.59;5038890;28;46763;-44
2022/12/04 03:05:56;;;;;;;;;10.75;10.75;;;;;19.96;31.18;100750.19;5037550;28;45759;-42
2022/12/04 03:08:28;;;;;;;;;10.25;8.50;;;;;19.94;30.99;100746.78;5038917;28;45924;-43
2022/12/04 03:10:56;;;;;;;;;8.50;8.50;;;;;19.94;31.11;100733.66;5039099;28;45396;-41
2022/12/04 03:13:34;;;;;;;;;10.50;8.00;;;;;19.93;31.38;100732.81;5038745;28;46358;-41
2022/12/04 03:16:10;;;;;;;;;13.25;10.00;;;;;19.93;31.39;100735.44;5038841;28;45821;-42
2022/12/04 03:18:45;;;;;;;;;15.00;11.25;;;;;19.91;30.88;100734.66;5039244;28;45419;-43
2022/12/04 03:21:16;;;;;;;;;9.00;8.75;;;;;19.89;31.33;100730.44;5039149;28;45259;-42
2022/12/04 03:23:53;;;;;;;;;9.25;8.00;;;;;19.88;31.06;100724.31;5038695;28;46359;-45
2022/12/04 03:26:47;;;;;;;;;14.50;11.00;;;;;19.87;30.94;100732.28;5038641;28;45838;-43
2022/12/04 03:29:22;;;;;;;;;10.75;8.75;;;;;19.85;31.03;100720.97;5038887;28;45404;-45
2022/12/04 03:32:04;;;;;;;;;11.00;8.25;;;;;19.85;31.03;100723.59;5038888;28;45236;-50
2022/12/04 03:34:33;;;;;;;;;13.50;11.00;;;;;19.84;31.04;100716.63;5054215;28;46515;-47
2022/12/04 03:37:07;;;;;;;;;11.00;9.00;;;;;19.83;31.13;100722.81;5038450;28;45893;-44
2022/12/04 03:39:39;;;;;;;;;9.75;9.75;;;;;19.82;31.56;100723.75;5038666;28;45288;-44
2022/12/04 03:42:17;;;;;;;;;8.00;8.00;;;;;19.83;31.61;100721.06;5038916;28;45541;-44
2022/12/04 03:44:52;;;;;;;;;8.00;7.25;;;;;19.85;31.30;100710.44;5038372;28;46359;-42
2022/12/04 03:47:28;;;;;;;;;10.75;8.25;;;;;19.87;31.81;100719.13;5038310;28;45910;-42
2022/12/04 03:50:01;;;;;;;;;10.50;9.00;;;;;19.91;31.92;100713.63;5038570;28;45303;-44
2022/12/04 03:52:40;;;;;;;;;9.00;8.00;;;;;19.92;31.90;100706.56;5038504;28;45476;-45
2022/12/04 03:55:29;;;;;;;;;9.25;8.25;;;;;19.95;31.85;100701.16;5038521;28;45293;-43
2022/12/04 03:58:02;;;;;;;;;10.00;10.00;;;;;19.97;31.71;100706.31;5038163;28;46080;-46
2022/12/04 04:00:29;;;;;;;;;8.50;8.50;;;;;19.99;31.45;100693.94;5038306;28;45493;-44
2022/12/04 04:03:02;;;;;;;;;10.00;8.75;;;;;20.02;31.39;100678.00;5038421;28;45264;-44
2022/12/04 04:05:30;;;;;;;;;12.50;11.00;;;;;20.03;32.02;100659.47;5037932;28;45615;-42
2022/12/04 04:08:24;;;;;;;;;10.00;8.00;;;;;20.04;31.68;100655.09;5037930;28;45504;-41
2022/12/04 04:10:44;;;;;;;;;11.50;9.00;;;;;20.06;31.38;100650.59;5038043;28;45363;-43
2022/12/04 04:24:39;;;;;;;;;9.25;9.25;;;;;20.16;31.82;100637.75;5038043;28;45361;-43
2022/12/04 04:27:05;;;;;;;;;9.75;9.50;;;;;20.15;31.61;100634.28;5037556;28;45455;-46
2022/12/04 04:29:30;;;;;;;;;14.00;10.00;;;;;20.18;31.74;100641.13;5037673;28;45173;-46
2022/12/04 04:32:11;;;;;;;;;10.00;10.00;;;;;20.17;31.71;100644.69;5037703;28;45174;-47
2022/12/04 04:34:55;;;;;;;;;10.00;9.00;;;;;20.20;31.28;100658.53;5038455;28;45430;-43
2022/12/04 04:37:29;;;;;;;;;13.50;10.00;;;;;20.22;31.55;100655.81;5037450;28;45459;-41
2022/12/04 04:40:13;;;;;;;;;9.50;8.50;;;;;20.22;31.61;100658.47;5037431;28;45987;-44
2022/12/04 04:42:49;;;;;;;;;11.00;7.75;;;;;20.23;31.88;100657.50;5036574;28;45430;-48
2022/12/04 04:45:25;;;;;;;;;10.25;8.25;;;;;20.28;31.71;100659.91;5037662;28;45393;-46
2022/12/04 04:47:57;;;;;;;;;12.50;8.25;;;;;20.26;31.95;100652.06;5037245;28;45451;-50
2022/12/04 04:50:23;;;;;;;;;11.00;9.75;;;;;20.27;31.52;100651.13;5037399;28;45482;-41
2022/12/04 04:52:55;;;;;;;;;11.75;8.00;;;;;20.29;31.35;100654.53;5037384;28;45368;-43
2022/12/04 04:55:22;;;;;;;;;10.25;9.50;;;;;20.27;31.38;100653.75;5037516;28;45327;-45
2022/12/04 04:57:47;;;;;;;;;10.50;9.00;;;;;20.30;31.17;100658.88;5037111;28;45536;-44
2022/12/04 05:00:19;;;;;;;;;11.25;8.25;;;;;20.30;31.54;100660.63;5037385;28;45325;-43
2022/12/04 05:02:45;;;;;;;;;14.25;9.50;;;;;20.31;31.35;100655.28;5035447;28;45375;-41
2022/12/04 05:05:12;;;;;;;;;10.75;10.00;;;;;20.32;31.83;100657.00;5037659;28;45327;-43
2022/12/04 05:07:37;;;;;;;;;9.00;9.00;;;;;20.33;31.35;100650.81;5036915;28;46563;-45
2022/12/04 05:10:04;;;;;;;;;10.00;10.00;;;;;20.35;31.61;100659.44;5037062;28;45294;-43
2022/12/04 05:12:29;;;;;;;;;8.50;8.50;;;;;20.34;31.62;100662.16;5035792;28;45356;-41
2022/12/04 05:14:54;;;;;;;;;10.00;8.50;;;;;20.33;31.42;100658.69;5037226;28;45378;-43
2022/12/04 05:17:20;;;;;;;;;7.75;7.75;;;;;20.34;31.74;100660.38;5036918;28;46106;-41
2022/12/04 05:19:57;;;;;;;;;15.25;14.50;;;;;20.34;31.24;100663.00;5036839;28;45376;-43
2022/12/04 05:22:34;;;;;;;;;16.50;12.75;;;;;20.32;31.36;100664.88;5036937;28;45322;-42
2022/12/04 05:25:00;;;;;;;;;13.75;12.00;;;;;20.31;30.83;100657.06;5037103;28;45429;-42
2022/12/04 05:27:28;;;;;;;;;10.50;10.50;;;;;20.30;31.19;100666.75;5036660;28;46786;-44
2022/12/04 05:29:55;;;;;;;;;10.75;10.75;;;;;20.27;31.16;100666.91;5036781;28;45878;-43
2022/12/04 05:32:22;;;;;;;;;13.75;11.50;;;;;20.26;30.85;100667.03;5036908;28;45447;-42
2022/12/04 05:34:51;;;;;;;;;17.25;14.75;;;;;20.26;31.16;100667.84;5036933;28;45318;-44
2022/12/04 05:37:17;;;;;;;;;13.75;10.75;;;;;20.25;31.19;100668.78;5036517;28;45604;-43
2022/12/04 05:39:43;;;;;;;;;16.25;13.75;;;;;20.26;31.11;100685.44;5036832;28;45248;-43
2022/12/04 05:42:09;;;;;;;;;16.00;12.25;;;;;20.23;31.11;100689.06;5036718;28;45299;-46
2022/12/04 05:44:34;;;;;;;;;13.50;12.00;;;;;20.21;31.36;100696.22;5036758;28;45370;-45
2022/12/04 05:46:59;;;;;;;;;14.25;13.50;;;;;20.19;31.36;100698.09;5036346;28;45586;-44
2022/12/04 05:49:28;;;;;;;;;16.50;11.00;;;;;20.15;30.91;100705.31;5035761;28;60478;-44
2022/12/04 05:51:53;;;;;;;;;15.25;13.50;;;;;20.14;30.82;100700.13;5036411;28;45279;-41
2022/12/04 05:54:19;;;;;;;;;18.00;16.25;;;;;20.13;30.63;100695.78;5036594;28;45576;-43
2022/12/04 05:56:44;;;;;;;;;16.25;14.25;;;;;20.07;30.74;100702.25;5036555;28;46954;-43
2022/12/04 05:59:10;;;;;;;;;16.75;14.00;;;;;20.05;30.88;100712.84;5036409;28;45283;-46
2022/12/04 06:01:35;;;;;;;;;12.50;12.25;;;;;20.02;31.03;100710.38;5036431;28;45321;-45
2022/12/04 06:04:01;;;;;;;;;12.50;10.00;;;;;20.00;30.68;100707.03;5036578;28;45311;-45
2022/12/04 06:06:26;;;;;;;;;12.75;10.25;;;;;20.01;31.16;100718.38;5035691;28;55981;-44
2022/12/04 06:08:56;;;;;;;;;15.00;12.25;;;;;20.00;30.62;100707.03;5036244;28;45319;-43
2022/12/04 06:11:24;;;;;;;;;16.25;11.75;;;;;19.98;31.04;100708.88;5036301;28;45311;-45
2022/12/04 06:13:50;;;;;;;;;12.25;11.25;;;;;19.98;30.75;100708.88;5035100;28;45244;-43
2022/12/04 06:16:24;;;;;;;;;13.75;12.75;;;;;19.98;31.01;100706.25;5039769;28;46376;-42
2022/12/04 06:18:52;;;;;;;;;13.75;12.25;;;;;19.98;30.98;100708.00;5038498;28;45875;-43
2022/12/04 06:21:19;;;;;;;;;17.00;13.00;;;;;19.97;30.64;100708.94;5040177;28;45391;-42
2022/12/04 06:23:45;;;;;;;;;14.00;12.25;;;;;19.94;30.85;100704.72;5040288;28;45326;-43
2022/12/04 06:26:11;;;;;;;;;11.75;9.25;;;;;19.94;30.99;100707.34;5039372;28;45398;-44
2022/12/04 06:28:36;;;;;;;;;12.75;11.00;;;;;19.92;30.94;100699.53;5039524;28;45361;-44
2022/12/04 06:31:08;;;;;;;;;13.75;10.25;;;;;19.89;30.81;100689.19;5039617;28;45294;-42
2022/12/04 06:33:36;;;;;;;;;13.75;9.75;;;;;19.89;30.92;100712.03;5038524;28;45366;-44
2022/12/04 06:36:05;;;;;;;;;13.50;11.00;;;;;19.85;30.96;100695.50;5039425;28;46371;-43
2022/12/04 06:38:31;;;;;;;;;13.25;11.50;;;;;19.85;31.14;100702.56;5038170;28;45316;-44
2022/12/04 06:40:57;;;;;;;;;11.00;10.25;;;;;19.84;30.68;100701.72;5039620;28;45576;-46
2022/12/04 06:43:23;;;;;;;;;14.33;10.67;;;;;19.82;30.71;100715.88;5054720;28;47788;-44
2022/12/04 06:45:57;;;;;;;;;13.75;12.50;;;;;19.80;30.65;100722.97;5039436;28;45662;-41
2022/12/04 06:48:23;;;;;;;;;13.25;9.75;;;;;19.77;30.83;100714.34;5039138;28;45849;-42
2022/12/04 06:50:48;;;;;;;;;12.75;10.00;;;;;19.76;31.05;100725.81;5039668;28;45314;-42
2022/12/04 06:53:13;;;;;;;;;13.75;10.00;;;;;19.73;31.06;100722.50;5039468;28;45538;-43
2022/12/04 06:55:39;;;;;;;;;14.50;12.50;;;;;19.71;30.91;100725.19;5039067;28;45352;-43
2022/12/04 06:58:04;;;;;;;;;13.25;10.25;;;;;19.68;31.32;100717.44;5038988;28;45439;-42
2022/12/04 07:00:29;;;;;;;;;13.25;11.25;;;;;19.67;30.88;100722.81;5054666;28;45507;-44
2022/12/04 07:02:55;;;;;;;;;9.25;9.00;;;;;19.67;31.14;100720.19;5039409;28;45528;-44
2022/12/04 07:05:20;;;;;;;;;14.50;11.00;;;;;19.65;31.25;100717.63;5054382;28;45362;-46
2022/12/04 07:07:45;;;;;;;;;12.67;12.00;;;;;19.63;30.95;100730.00;5053842;28;61215;-43
2022/12/04 07:10:11;;;;;;;;;14.25;10.50;;;;;19.60;31.38;100720.50;5037742;28;45430;-41
2022/12/04 07:12:36;;;;;;;;;13.75;12.25;;;;;19.58;31.44;100724.13;5037701;28;45323;-44
2022/12/04 07:15:01;;;;;;;;;11.00;10.00;;;;;19.54;31.20;100723.44;5038620;28;45375;-43
2022/12/04 07:17:27;;;;;;;;;14.00;9.25;;;;;19.54;30.96;100726.09;5038706;28;45312;-42
2022/12/04 07:19:52;;;;;;;;;15.25;13.00;;;;;19.52;31.20;100725.31;5038737;28;45388;-41
2022/12/04 07:22:17;;;;;;;;;13.25;11.25;;;;;19.52;30.99;100727.09;5039372;28;45216;-45
2022/12/04 07:24:43;;;;;;;;;12.00;8.00;;;;;19.49;31.04;100719.38;5038471;28;47583;-43
2022/12/04 07:27:08;;;;;;;;;11.25;11.25;;;;;19.48;31.02;100726.41;5038222;28;45252;-46
2022/12/04 07:29:33;;;;;;;;;11.33;11.00;;;;;19.46;31.57;100728.28;5038433;28;47478;-42
2022/12/04 07:32:02;;;;;;;;;13.50;10.00;;;;;19.46;31.25;100728.28;5038843;28;45584;-41
2022/12/04 07:34:28;;;;;;;;;11.50;11.50;;;;;19.44;31.27;100728.38;5038581;28;45825;-47
2022/12/04 07:36:53;;;;;;;;;16.25;11.50;;;;;19.41;31.20;100725.88;5038450;28;45354;-47
2022/12/04 07:39:18;;;;;;;;;17.00;12.25;;;;;19.41;31.08;100723.25;5038895;28;45456;-47
2022/12/04 07:41:44;;;;;;;;;13.00;13.00;;;;;19.40;31.29;100724.19;5038704;28;45369;-48
2022/12/04 07:44:09;;;;;;;;;16.50;14.00;;;;;19.38;31.33;100726.03;5038141;28;46318;-47
2022/12/04 07:46:34;;;;;;;;;17.75;12.25;;;;;19.36;31.49;100722.63;5036809;28;45429;-48
2022/12/04 07:49:00;;;;;;;;;19.25;17.00;;;;;19.33;31.73;100722.81;5038326;28;45362;-44
2022/12/04 07:51:27;;;;;;;;;17.50;15.75;;;;;19.35;31.34;100734.06;5037240;28;45352;-44
2022/12/04 07:53:56;;;;;;;;;18.25;13.25;;;;;19.38;31.26;100720.78;5044089;28;45594;-44
2022/12/04 07:56:22;;;;;;;;;16.25;13.00;;;;;19.41;31.41;100706.63;5053565;28;45571;-44
2022/12/04 07:58:47;;;;;;;;;16.75;14.50;;;;;19.44;31.75;100715.22;5038014;28;45455;-41
2022/12/04 08:01:18;;;;;;;;;14.50;13.25;;;;;19.50;31.80;100715.81;5038068;28;45651;-49
2022/12/04 08:03:45;;;;;;;;;13.75;11.50;;;;;19.53;31.93;100699.88;5037993;28;46445;-46
2022/12/04 08:06:11;;;;;;;;;12.25;12.00;;;;;19.59;31.45;100710.94;5037397;28;45326;-44
2022/12/04 08:08:36;;;;;;;;;11.00;9.25;;;;;19.63;31.92;100712.44;5037823;28;45358;-50
2022/12/04 08:11:07;;;;;;;;;15.75;15.00;;;;;19.62;31.83;100708.13;5037928;28;45452;-48
2022/12/04 08:13:33;;;;;;;;;15.50;15.00;;;;;19.71;31.60;100716.47;5037734;28;45806;-47
2022/12/04 08:16:03;;;;;;;;;12.25;12.25;;;;;19.74;31.38;100700.50;5053151;28;45404;-48
2022/12/04 08:18:29;;;;;;;;;15.00;14.25;;;;;19.78;31.56;100705.53;5037621;28;45247;-46
2022/12/04 08:21:05;;;;;;;;;13.00;12.00;;;;;19.81;31.98;100701.00;5037662;28;45371;-47
2022/12/04 08:23:30;;;;;;;;;14.00;12.50;;;;;19.85;31.33;100710.44;5036962;28;45521;-48
2022/12/04 08:25:58;;;;;;;;;12.00;11.25;;;;;19.87;31.59;100712.09;5036692;28;45550;-47
2022/12/04 08:28:23;;;;;;;;;13.25;11.50;;;;;19.86;31.54;100697.22;5037036;28;45315;-47
2022/12/04 08:30:49;;;;;;;;;11.50;11.50;;;;;19.87;31.46;100706.00;5037040;28;45389;-47
2022/12/04 08:33:14;;;;;;;;;15.75;12.75;;;;;19.96;31.84;100716.00;5036843;28;46230;-46
2022/12/04 09:43:14;;;;;;;;;16.50;12.25;;;;;20.37;31.47;100741.78;5696967;22;46916;-56
2022/12/04 09:45:47;;;;;;;;;18.75;11.00;;;;;20.39;31.66;100739.09;5038256;28;45268;-53
2022/12/04 09:48:16;;;;;;;;;13.75;12.00;;;;;20.42;31.58;100743.34;5035406;28;45237;-53
2022/12/04 09:50:44;;;;;;;;;15.75;12.00;;;;;20.44;31.45;100736.19;5017465;28;46766;-55
2022/12/04 09:53:15;;;;;;;;;14.25;12.00;;;;;20.46;31.36;100735.16;5035658;28;46043;-54
2022/12/04 09:55:53;;;;;;;;;14.00;12.75;;;;;20.48;31.62;100735.94;5035892;28;45375;-55
2022/12/04 09:58:39;;;;;;;;;12.50;11.50;;;;;20.50;31.73;100733.22;5035645;28;45387;-56
2022/12/04 10:01:05;;;;;;;;;12.25;12.25;;;;;20.52;31.68;100733.97;5035363;28;45463;-52
2022/12/04 10:03:31;;;;;;;;;16.25;13.00;;;;;20.53;31.68;100725.13;5035345;28;45418;-56
2022/12/04 10:06:21;;;;;;;;;14.75;13.25;;;;;20.53;31.69;100722.50;5035726;28;45248;-56
2022/12/04 10:09:14;;;;;;;;;10.00;9.25;;;;;20.55;31.42;100733.81;5035538;28;45360;-54
2022/12/04 10:12:14;;;;;;;;;11.75;10.75;;;;;20.56;31.37;100732.84;5028908;28;45748;-50
2022/12/04 10:14:47;;;;;;;;;16.25;13.25;;;;;20.55;31.79;100718.00;5041542;28;45480;-53
2022/12/04 10:17:26;;;;;;;;;15.25;11.25;;;;;20.57;31.90;100721.38;5055678;28;45450;-53
2022/12/04 10:20:01;;;;;;;;;16.50;12.75;;;;;20.58;31.30;100723.06;5055231;28;45335;-56
2022/12/04 10:22:43;;;;;;;;;16.75;12.50;;;;;20.59;31.83;100730.03;5037553;28;46980;-53
2022/12/04 10:25:17;;;;;;;;;17.50;13.25;;;;;20.59;31.71;100730.03;5055264;28;46031;-43
2022/12/04 10:28:07;;;;;;;;;14.25;13.00;;;;;20.59;31.75;100722.16;5055531;28;45342;-50
2022/12/04 10:30:36;;;;;;;;;11.75;11.75;;;;;20.60;31.88;100715.94;5055032;28;45605;-53
2022/12/04 10:33:16;;;;;;;;;15.25;11.00;;;;;20.59;31.83;100711.59;5054854;28;46161;-52
2022/12/04 10:35:45;;;;;;;;;13.50;11.50;;;;;20.62;31.76;100713.22;5046471;28;45264;-57
2022/12/04 10:38:19;;;;;;;;;12.75;12.25;;;;;20.60;31.83;100710.69;5017225;28;45393;-55
2022/12/04 10:40:54;;;;;;;;;14.00;12.00;;;;;20.63;31.33;100710.50;5034831;28;45473;-51
2022/12/04 10:43:26;;;;;;;;;11.00;10.25;;;;;20.64;31.37;100720.09;5035328;28;45348;-53
2022/12/04 10:45:51;;;;;;;;;14.00;13.50;;;;;20.64;31.70;100716.59;5035385;28;45906;-55
2022/12/04 10:48:22;;;;;;;;;11.25;11.25;;;;;20.64;31.80;100722.75;5035767;28;45410;-54
2022/12/04 10:50:47;;;;;;;;;15.75;14.25;;;;;20.64;31.98;100720.09;5036081;28;45328;-50
2022/12/04 10:53:15;;;;;;;;;12.00;11.00;;;;;20.67;31.60;100721.72;5035333;28;45347;-53
2022/12/04 10:55:40;;;;;;;;;16.75;14.00;;;;;20.68;31.80;100720.78;5035440;28;46533;-51
2022/12/04 10:58:16;;;;;;;;;17.25;16.00;;;;;20.68;31.66;100718.97;5035605;28;45490;-47
2022/12/04 11:00:44;;;;;;;;;16.75;14.50;;;;;20.69;31.62;100720.69;5036616;28;45537;-50
2022/12/04 11:03:24;;;;;;;;;15.75;14.00;;;;;20.67;31.33;100713.81;5020908;28;46415;-54
2022/12/04 11:05:54;;;;;;;;;15.25;14.25;;;;;20.67;31.34;100712.00;5038807;28;45359;-55
2022/12/04 11:08:23;;;;;;;;;19.75;15.00;;;;;20.66;31.57;100706.84;5039071;28;45325;-51
2022/12/04 11:10:58;;;;;;;;;11.00;10.00;;;;;20.65;31.51;100711.28;5039121;28;45478;-58
2022/12/04 11:13:24;;;;;;;;;11.75;10.50;;;;;20.60;31.34;100702.78;5038809;28;45705;-54
2022/12/04 11:15:54;;;;;;;;;15.25;13.25;;;;;20.63;31.35;100712.28;5038805;28;45351;-54
2022/12/04 11:18:27;;;;;;;;;18.25;14.25;;;;;20.64;31.68;100709.56;5038937;28;45416;-54
2022/12/04 11:20:54;;;;;;;;;23.75;16.75;;;;;20.63;31.58;100705.25;5039200;28;45562;-57
2022/12/04 11:23:20;;;;;;;;;18.25;15.00;;;;;20.62;31.26;100700.03;5020610;28;47940;-49
2022/12/04 11:25:52;;;;;;;;;17.50;14.75;;;;;20.63;31.70;100704.38;5038594;28;45305;-53
2022/12/04 11:28:22;;;;;;;;;17.75;15.75;;;;;20.62;31.75;100703.53;5038762;28;45409;-50
2022/12/04 11:30:51;;;;;;;;;16.50;13.25;;;;;20.61;31.69;100699.22;5038890;28;45441;-50
2022/12/04 11:33:24;;;;;;;;;21.00;15.00;;;;;20.59;31.58;100698.44;5038376;28;45915;-51
2022/12/04 11:35:54;;;;;;;;;19.00;15.75;;;;;20.59;31.86;100697.63;5038482;28;45375;-55
2022/12/04 11:38:25;;;;;;;;;18.50;14.50;;;;;20.59;31.76;100702.88;5037308;28;45468;-48
2022/12/04 11:40:56;;;;;;;;;15.25;12.75;;;;;20.61;31.95;100696.56;5038817;28;45339;-49
2022/12/04 11:43:28;;;;;;;;;16.75;16.25;;;;;20.60;31.72;100697.50;5038236;28;46058;-53
2022/12/04 11:46:00;;;;;;;;;15.75;15.75;;;;;20.59;31.70;100701.06;5038341;28;45396;-56
2022/12/04 11:48:28;;;;;;;;;15.75;15.75;;;;;20.61;31.84;100701.00;5038267;28;45326;-58
2022/12/04 11:51:13;;;;;;;;;14.75;13.50;;;;;20.63;31.62;100685.94;5038536;28;45308;-53
2022/12/04 11:53:46;;;;;;;;;16.50;14.50;;;;;20.63;31.63;100681.53;5038193;28;45784;-53
2022/12/04 11:56:27;;;;;;;;;13.50;12.00;;;;;20.62;31.54;100687.75;5038198;28;45162;-54
2022/12/04 11:59:47;;;;;;;;;21.00;15.50;;;;;20.63;31.91;100678.03;5038202;28;45399;-55
2022/12/04 12:02:33;;;;;;;;;16.00;15.50;;;;;20.60;31.76;100679.09;5025015;28;45256;-56
2022/12/04 12:05:31;;;;;;;;;19.50;15.75;;;;;20.61;31.60;100674.69;5037871;28;45327;-54
2022/12/04 12:08:19;;;;;;;;;18.75;17.25;;;;;20.60;32.00;100662.44;5038013;28;45480;-57
2022/12/04 12:10:51;;;;;;;;;16.50;14.00;;;;;20.59;31.93;100656.31;5038223;28;45433;-57
2022/12/04 12:13:31;;;;;;;;;18.00;16.50;;;;;20.59;31.91;100651.06;5036803;28;45522;-56
2022/12/04 12:16:26;;;;;;;;;23.25;20.25;;;;;20.60;31.52;100652.75;5037788;28;46786;-56
2022/12/04 12:19:07;;;;;;;;;24.00;19.00;;;;;20.58;31.65;100651.97;5009084;28;45522;-54
2022/12/04 12:21:56;;;;;;;;;14.50;14.50;;;;;20.60;31.58;100662.44;5038224;28;45323;-55
2022/12/04 12:24:28;;;;;;;;;22.25;18.75;;;;;20.61;31.82;100659.72;5037900;28;45484;-52
2022/12/04 12:27:12;;;;;;;;;22.25;19.00;;;;;20.62;31.43;100655.28;5046988;28;45453;-55
2022/12/04 12:29:56;;;;;;;;;22.00;18.25;;;;;20.64;31.54;100654.28;5048459;28;45466;-52
2022/12/04 12:32:27;;;;;;;;;21.00;20.25;;;;;20.62;31.57;100650.88;5037527;28;45426;-53
2022/12/04 12:34:52;;;;;;;;;21.75;18.00;;;;;20.62;31.36;100648.25;5037524;28;45250;-54
2022/12/04 12:37:42;;;;;;;;;21.50;19.25;;;;;20.65;31.34;100653.34;5037059;28;46212;-52
2022/12/04 12:40:14;;;;;;;;;17.00;15.50;;;;;20.66;31.82;100652.41;5037278;28;45991;-53
2022/12/04 12:42:47;;;;;;;;;20.00;17.00;;;;;20.66;31.40;100651.53;5037063;28;45410;-55
2022/12/04 12:45:30;;;;;;;;;20.75;18.50;;;;;20.67;31.27;100669.88;5037540;28;45345;-47
2022/12/04 12:48:06;;;;;;;;;21.50;19.00;;;;;20.68;31.86;100663.66;5040098;28;46153;-50
2022/12/04 12:50:43;;;;;;;;;22.75;20.00;;;;;20.69;31.25;100660.09;5057563;28;45256;-50
2022/12/04 12:53:17;;;;;;;;;17.50;16.00;;;;;20.72;31.39;100652.97;5039059;28;45315;-54